sensor_id;sensor_type;location;lat;lon;timestamp;temperature;humidity
79760;DHT22;70512;42.122;24.732;2023-06-10T00:00:11;19.50;74.40
79760;DHT22;70512;42.122;24.732;2023-06-10T00:02:42;19.40;74.20
79760;DHT22;70512;42.122;24.732;2023-06-10T00:05:10;19.50;74.40
79760;DHT22;70512;42.122;24.732;2023-06-10T00:07:38;19.40;74.30
79760;DHT22;70512;42.122;24.732;2023-06-10T00:10:08;19.30;74.80
79760;DHT22;70512;42.122;24.732;2023-06-10T00:12:37;19.30;74.90
79760;DHT22;70512;42.122;24.732;2023-06-10T00:15:06;19.20;75.70
79760;DHT22;70512;42.122;24.732;2023-06-10T00:17:34;19.20;75.10
79760;DHT22;70512;42.122;24.732;2023-06-10T00:20:05;19.20;75.10
79760;DHT22;70512;42.122;24.732;2023-06-10T00:22:34;19.20;74.90
79760;DHT22;70512;42.122;24.732;2023-06-10T00:25:02;19.30;74.80
79760;DHT22;70512;42.122;24.732;2023-06-10T00:27:30;19.10;74.90
79760;DHT22;70512;42.122;24.732;2023-06-10T00:29:59;19.10;75.20
79760;DHT22;70512;42.122;24.732;2023-06-10T00:32:27;19.20;75.10
79760;DHT22;70512;42.122;24.732;2023-06-10T00:34:55;19.10;75.20
79760;DHT22;70512;42.122;24.732;2023-06-10T00:37:22;19.10;75.30
79760;DHT22;70512;42.122;24.732;2023-06-10T00:39:50;19.10;75.70
79760;DHT22;70512;42.122;24.732;2023-06-10T00:42:18;19.10;75.90
79760;DHT22;70512;42.122;24.732;2023-06-10T00:44:46;19.00;75.80
79760;DHT22;70512;42.122;24.732;2023-06-10T00:47:14;19.00;75.90
79760;DHT22;70512;42.122;24.732;2023-06-10T00:49:42;19.00;76.00
79760;DHT22;70512;42.122;24.732;2023-06-10T00:52:10;19.00;75.80
79760;DHT22;70512;42.122;24.732;2023-06-10T00:54:38;19.00;75.90
79760;DHT22;70512;42.122;24.732;2023-06-10T00:57:08;19.10;75.90
79760;DHT22;70512;42.122;24.732;2023-06-10T00:59:36;19.00;75.90
79760;DHT22;70512;42.122;24.732;2023-06-10T01:02:04;19.00;75.90
79760;DHT22;70512;42.122;24.732;2023-06-10T01:04:32;19.00;76.00
79760;DHT22;70512;42.122;24.732;2023-06-10T01:09:39;19.00;75.90
79760;DHT22;70512;42.122;24.732;2023-06-10T01:14:53;19.00;75.30
79760;DHT22;70512;42.122;24.732;2023-06-10T01:17:22;19.10;75.50
79760;DHT22;70512;42.122;24.732;2023-06-10T01:19:57;19.10;75.40
79760;DHT22;70512;42.122;24.732;2023-06-10T01:22:26;19.00;75.40
79760;DHT22;70512;42.122;24.732;2023-06-10T01:24:59;19.10;75.30
79760;DHT22;70512;42.122;24.732;2023-06-10T01:27:30;19.10;75.30
79760;DHT22;70512;42.122;24.732;2023-06-10T01:30:04;19.10;75.30
79760;DHT22;70512;42.122;24.732;2023-06-10T01:32:37;19.10;75.30
79760;DHT22;70512;42.122;24.732;2023-06-10T01:35:05;19.00;75.60
79760;DHT22;70512;42.122;24.732;2023-06-10T01:37:33;19.00;76.00
79760;DHT22;70512;42.122;24.732;2023-06-10T01:40:03;19.00;76.00
79760;DHT22;70512;42.122;24.732;2023-06-10T01:42:33;19.00;75.70
79760;DHT22;70512;42.122;24.732;2023-06-10T01:45:01;19.00;75.60
79760;DHT22;70512;42.122;24.732;2023-06-10T01:47:29;19.00;75.70
79760;DHT22;70512;42.122;24.732;2023-06-10T01:49:57;19.00;75.20
79760;DHT22;70512;42.122;24.732;2023-06-10T01:52:25;19.00;75.30
79760;DHT22;70512;42.122;24.732;2023-06-10T01:54:53;19.00;75.20
79760;DHT22;70512;42.122;24.732;2023-06-10T01:57:21;19.00;75.70
79760;DHT22;70512;42.122;24.732;2023-06-10T01:59:48;18.90;75.70
79760;DHT22;70512;42.122;24.732;2023-06-10T02:02:16;18.90;76.10
79760;DHT22;70512;42.122;24.732;2023-06-10T02:04:44;18.80;76.40
79760;DHT22;70512;42.122;24.732;2023-06-10T02:07:12;18.80;76.20
79760;DHT22;70512;42.122;24.732;2023-06-10T02:09:39;18.90;76.00
79760;DHT22;70512;42.122;24.732;2023-06-10T02:12:08;19.00;75.40
79760;DHT22;70512;42.122;24.732;2023-06-10T02:14:36;19.00;75.50
79760;DHT22;70512;42.122;24.732;2023-06-10T02:17:05;19.20;74.70
79760;DHT22;70512;42.122;24.732;2023-06-10T02:19:32;19.20;74.50
79760;DHT22;70512;42.122;24.732;2023-06-10T02:22:02;19.20;74.50
79760;DHT22;70512;42.122;24.732;2023-06-10T02:24:29;19.20;74.30
79760;DHT22;70512;42.122;24.732;2023-06-10T02:26:57;19.20;74.30
79760;DHT22;70512;42.122;24.732;2023-06-10T02:29:27;19.20;74.20
79760;DHT22;70512;42.122;24.732;2023-06-10T02:31:54;19.20;74.50
79760;DHT22;70512;42.122;24.732;2023-06-10T02:34:22;19.10;74.80
79760;DHT22;70512;42.122;24.732;2023-06-10T02:36:50;19.00;74.90
79760;DHT22;70512;42.122;24.732;2023-06-10T02:39:18;19.10;74.90
79760;DHT22;70512;42.122;24.732;2023-06-10T02:41:46;19.20;74.30
79760;DHT22;70512;42.122;24.732;2023-06-10T02:44:13;19.30;73.90
79760;DHT22;70512;42.122;24.732;2023-06-10T02:46:41;19.40;73.80
79760;DHT22;70512;42.122;24.732;2023-06-10T02:49:09;19.50;73.10
79760;DHT22;70512;42.122;24.732;2023-06-10T02:51:36;19.50;72.80
79760;DHT22;70512;42.122;24.732;2023-06-10T02:54:04;19.60;72.60
79760;DHT22;70512;42.122;24.732;2023-06-10T02:56:32;19.70;73.10
79760;DHT22;70512;42.122;24.732;2023-06-10T02:59:00;19.70;72.00
79760;DHT22;70512;42.122;24.732;2023-06-10T03:01:28;19.60;72.80
79760;DHT22;70512;42.122;24.732;2023-06-10T03:03:57;19.70;72.10
79760;DHT22;70512;42.122;24.732;2023-06-10T03:06:25;19.60;72.10
79760;DHT22;70512;42.122;24.732;2023-06-10T03:08:53;19.60;72.30
79760;DHT22;70512;42.122;24.732;2023-06-10T03:11:20;19.60;72.40
79760;DHT22;70512;42.122;24.732;2023-06-10T03:13:48;19.60;72.40
79760;DHT22;70512;42.122;24.732;2023-06-10T03:16:16;19.60;72.20
79760;DHT22;70512;42.122;24.732;2023-06-10T03:18:45;19.70;72.20
79760;DHT22;70512;42.122;24.732;2023-06-10T03:21:12;19.60;72.20
79760;DHT22;70512;42.122;24.732;2023-06-10T03:23:40;19.70;72.10
79760;DHT22;70512;42.122;24.732;2023-06-10T03:26:08;19.80;71.50
79760;DHT22;70512;42.122;24.732;2023-06-10T03:28:36;19.90;71.20
79760;DHT22;70512;42.122;24.732;2023-06-10T03:31:04;19.90;71.20
79760;DHT22;70512;42.122;24.732;2023-06-10T03:33:32;19.90;71.20
79760;DHT22;70512;42.122;24.732;2023-06-10T03:35:59;20.10;71.00
79760;DHT22;70512;42.122;24.732;2023-06-10T03:38:27;20.10;70.60
79760;DHT22;70512;42.122;24.732;2023-06-10T03:40:55;20.10;70.50
79760;DHT22;70512;42.122;24.732;2023-06-10T03:43:23;20.20;70.90
79760;DHT22;70512;42.122;24.732;2023-06-10T03:45:51;20.30;69.70
79760;DHT22;70512;42.122;24.732;2023-06-10T03:48:18;20.40;68.80
79760;DHT22;70512;42.122;24.732;2023-06-10T03:50:47;20.50;68.50
79760;DHT22;70512;42.122;24.732;2023-06-10T03:53:16;20.50;68.40
79760;DHT22;70512;42.122;24.732;2023-06-10T03:55:44;20.50;68.30
79760;DHT22;70512;42.122;24.732;2023-06-10T03:58:12;20.50;68.20
79760;DHT22;70512;42.122;24.732;2023-06-10T04:00:41;20.60;68.00
79760;DHT22;70512;42.122;24.732;2023-06-10T04:03:09;20.70;67.80
79760;DHT22;70512;42.122;24.732;2023-06-10T04:05:39;20.80;67.50
79760;DHT22;70512;42.122;24.732;2023-06-10T04:08:07;20.90;66.90
79760;DHT22;70512;42.122;24.732;2023-06-10T04:10:35;21.00;66.50
79760;DHT22;70512;42.122;24.732;2023-06-10T04:13:03;21.00;66.00
79760;DHT22;70512;42.122;24.732;2023-06-10T04:15:31;21.10;65.70
79760;DHT22;70512;42.122;24.732;2023-06-10T04:18:01;21.10;65.30
79760;DHT22;70512;42.122;24.732;2023-06-10T04:20:29;21.20;65.10
79760;DHT22;70512;42.122;24.732;2023-06-10T04:22:57;21.20;65.60
79760;DHT22;70512;42.122;24.732;2023-06-10T04:25:26;21.20;65.60
79760;DHT22;70512;42.122;24.732;2023-06-10T04:27:55;21.30;65.20
79760;DHT22;70512;42.122;24.732;2023-06-10T04:30:23;21.40;64.80
79760;DHT22;70512;42.122;24.732;2023-06-10T04:32:50;21.40;64.60
79760;DHT22;70512;42.122;24.732;2023-06-10T04:35:18;21.40;64.30
79760;DHT22;70512;42.122;24.732;2023-06-10T04:37:46;21.50;63.90
79760;DHT22;70512;42.122;24.732;2023-06-10T04:40:14;21.50;63.80
79760;DHT22;70512;42.122;24.732;2023-06-10T04:42:42;21.60;63.50
79760;DHT22;70512;42.122;24.732;2023-06-10T04:45:10;21.60;63.30
79760;DHT22;70512;42.122;24.732;2023-06-10T04:47:38;21.70;63.10
79760;DHT22;70512;42.122;24.732;2023-06-10T04:50:06;21.70;62.80
79760;DHT22;70512;42.122;24.732;2023-06-10T04:52:34;21.80;62.80
79760;DHT22;70512;42.122;24.732;2023-06-10T04:55:02;21.90;62.50
79760;DHT22;70512;42.122;24.732;2023-06-10T04:57:30;21.90;62.00
79760;DHT22;70512;42.122;24.732;2023-06-10T04:59:57;22.10;61.90
79760;DHT22;70512;42.122;24.732;2023-06-10T05:02:25;22.10;61.50
79760;DHT22;70512;42.122;24.732;2023-06-10T05:04:53;22.20;61.30
79760;DHT22;70512;42.122;24.732;2023-06-10T05:07:21;22.30;60.90
79760;DHT22;70512;42.122;24.732;2023-06-10T05:09:49;22.30;61.20
79760;DHT22;70512;42.122;24.732;2023-06-10T05:12:17;22.40;60.60
79760;DHT22;70512;42.122;24.732;2023-06-10T05:14:45;22.20;60.60
79760;DHT22;70512;42.122;24.732;2023-06-10T05:17:12;22.10;61.30
79760;DHT22;70512;42.122;24.732;2023-06-10T05:19:40;22.10;61.80
79760;DHT22;70512;42.122;24.732;2023-06-10T05:22:09;22.20;61.70
79760;DHT22;70512;42.122;24.732;2023-06-10T05:24:37;22.40;61.50
79760;DHT22;70512;42.122;24.732;2023-06-10T05:27:10;22.70;60.60
79760;DHT22;70512;42.122;24.732;2023-06-10T05:29:36;23.00;59.60
79760;DHT22;70512;42.122;24.732;2023-06-10T05:32:04;22.90;59.60
79760;DHT22;70512;42.122;24.732;2023-06-10T05:34:32;22.70;58.90
79760;DHT22;70512;42.122;24.732;2023-06-10T05:37:00;23.00;58.90
79760;DHT22;70512;42.122;24.732;2023-06-10T05:39:28;23.20;58.70
79760;DHT22;70512;42.122;24.732;2023-06-10T05:41:55;23.00;58.60
79760;DHT22;70512;42.122;24.732;2023-06-10T05:44:25;23.00;59.30
79760;DHT22;70512;42.122;24.732;2023-06-10T05:46:52;23.00;59.30
79760;DHT22;70512;42.122;24.732;2023-06-10T05:49:20;23.10;58.90
79760;DHT22;70512;42.122;24.732;2023-06-10T05:51:48;23.00;58.80
79760;DHT22;70512;42.122;24.732;2023-06-10T05:54:16;22.90;57.40
79760;DHT22;70512;42.122;24.732;2023-06-10T05:56:43;22.90;57.00
79760;DHT22;70512;42.122;24.732;2023-06-10T05:59:11;22.70;57.20
79760;DHT22;70512;42.122;24.732;2023-06-10T06:01:39;22.70;57.30
79760;DHT22;70512;42.122;24.732;2023-06-10T06:04:07;22.70;57.60
79760;DHT22;70512;42.122;24.732;2023-06-10T06:06:38;22.60;58.30
79760;DHT22;70512;42.122;24.732;2023-06-10T06:09:04;22.60;58.20
79760;DHT22;70512;42.122;24.732;2023-06-10T06:11:34;22.60;58.40
79760;DHT22;70512;42.122;24.732;2023-06-10T06:14:02;22.60;58.60
79760;DHT22;70512;42.122;24.732;2023-06-10T06:16:30;22.70;58.50
79760;DHT22;70512;42.122;24.732;2023-06-10T06:18:57;22.80;58.00
79760;DHT22;70512;42.122;24.732;2023-06-10T06:21:25;22.80;57.90
79760;DHT22;70512;42.122;24.732;2023-06-10T06:23:53;23.00;57.50
79760;DHT22;70512;42.122;24.732;2023-06-10T06:26:20;23.00;57.70
79760;DHT22;70512;42.122;24.732;2023-06-10T06:28:48;23.10;56.90
79760;DHT22;70512;42.122;24.732;2023-06-10T06:31:16;23.10;57.80
79760;DHT22;70512;42.122;24.732;2023-06-10T06:33:44;23.10;57.30
79760;DHT22;70512;42.122;24.732;2023-06-10T06:36:11;23.30;57.50
79760;DHT22;70512;42.122;24.732;2023-06-10T06:38:39;23.60;57.30
79760;DHT22;70512;42.122;24.732;2023-06-10T06:41:07;23.80;56.90
79760;DHT22;70512;42.122;24.732;2023-06-10T06:43:34;23.90;56.60
79760;DHT22;70512;42.122;24.732;2023-06-10T06:46:02;23.80;56.90
79760;DHT22;70512;42.122;24.732;2023-06-10T06:48:30;24.10;55.90
79760;DHT22;70512;42.122;24.732;2023-06-10T06:50:58;24.40;55.60
79760;DHT22;70512;42.122;24.732;2023-06-10T06:53:27;24.80;54.30
79760;DHT22;70512;42.122;24.732;2023-06-10T06:55:54;25.20;53.80
79760;DHT22;70512;42.122;24.732;2023-06-10T06:58:22;25.50;52.60
79760;DHT22;70512;42.122;24.732;2023-06-10T07:00:50;25.70;52.00
79760;DHT22;70512;42.122;24.732;2023-06-10T07:03:17;25.70;51.80
79760;DHT22;70512;42.122;24.732;2023-06-10T07:05:45;25.60;50.90
79760;DHT22;70512;42.122;24.732;2023-06-10T07:08:13;25.70;51.60
79760;DHT22;70512;42.122;24.732;2023-06-10T07:10:41;25.80;51.30
79760;DHT22;70512;42.122;24.732;2023-06-10T07:13:09;25.60;52.00
79760;DHT22;70512;42.122;24.732;2023-06-10T07:15:38;25.50;52.20
79760;DHT22;70512;42.122;24.732;2023-06-10T07:18:05;25.50;51.90
79760;DHT22;70512;42.122;24.732;2023-06-10T07:20:33;25.40;52.20
79760;DHT22;70512;42.122;24.732;2023-06-10T07:23:01;25.50;52.20
79760;DHT22;70512;42.122;24.732;2023-06-10T07:25:28;25.40;52.10
79760;DHT22;70512;42.122;24.732;2023-06-10T07:27:56;25.20;52.80
79760;DHT22;70512;42.122;24.732;2023-06-10T07:30:24;25.20;52.90
79760;DHT22;70512;42.122;24.732;2023-06-10T07:32:52;25.40;52.50
79760;DHT22;70512;42.122;24.732;2023-06-10T07:35:19;25.50;52.10
79760;DHT22;70512;42.122;24.732;2023-06-10T07:37:47;25.70;51.90
79760;DHT22;70512;42.122;24.732;2023-06-10T07:40:15;25.70;51.60
79760;DHT22;70512;42.122;24.732;2023-06-10T07:42:43;25.40;51.60
79760;DHT22;70512;42.122;24.732;2023-06-10T07:45:11;25.40;52.00
79760;DHT22;70512;42.122;24.732;2023-06-10T07:47:38;25.50;51.80
79760;DHT22;70512;42.122;24.732;2023-06-10T07:50:06;25.50;51.20
79760;DHT22;70512;42.122;24.732;2023-06-10T07:52:34;25.50;50.90
79760;DHT22;70512;42.122;24.732;2023-06-10T07:55:02;25.50;50.80
79760;DHT22;70512;42.122;24.732;2023-06-10T07:57:30;25.50;50.40
79760;DHT22;70512;42.122;24.732;2023-06-10T07:59:59;25.30;50.00
79760;DHT22;70512;42.122;24.732;2023-06-10T08:02:29;25.40;50.00
79760;DHT22;70512;42.122;24.732;2023-06-10T08:04:56;25.60;50.00
79760;DHT22;70512;42.122;24.732;2023-06-10T08:07:24;25.70;49.40
79760;DHT22;70512;42.122;24.732;2023-06-10T08:09:52;26.10;49.20
79760;DHT22;70512;42.122;24.732;2023-06-10T08:12:20;26.40;48.30
79760;DHT22;70512;42.122;24.732;2023-06-10T08:14:47;26.70;47.60
79760;DHT22;70512;42.122;24.732;2023-06-10T08:17:15;27.00;47.40
79760;DHT22;70512;42.122;24.732;2023-06-10T08:19:43;27.20;47.00
79760;DHT22;70512;42.122;24.732;2023-06-10T08:22:10;27.10;46.60
79760;DHT22;70512;42.122;24.732;2023-06-10T08:24:38;27.20;46.10
79760;DHT22;70512;42.122;24.732;2023-06-10T08:27:06;27.50;46.00
79760;DHT22;70512;42.122;24.732;2023-06-10T08:29:34;27.70;44.90
79760;DHT22;70512;42.122;24.732;2023-06-10T08:32:02;28.00;44.10
79760;DHT22;70512;42.122;24.732;2023-06-10T08:34:30;28.10;44.30
79760;DHT22;70512;42.122;24.732;2023-06-10T08:36:57;28.10;43.70
79760;DHT22;70512;42.122;24.732;2023-06-10T08:39:25;28.20;43.60
79760;DHT22;70512;42.122;24.732;2023-06-10T08:42:13;28.40;43.00
79760;DHT22;70512;42.122;24.732;2023-06-10T08:44:40;28.80;43.00
79760;DHT22;70512;42.122;24.732;2023-06-10T08:47:14;28.90;42.00
79760;DHT22;70512;42.122;24.732;2023-06-10T08:49:44;28.80;41.90
79760;DHT22;70512;42.122;24.732;2023-06-10T08:52:18;29.10;41.30
79760;DHT22;70512;42.122;24.732;2023-06-10T08:54:59;29.40;39.90
79760;DHT22;70512;42.122;24.732;2023-06-10T08:57:30;29.80;39.60
79760;DHT22;70512;42.122;24.732;2023-06-10T08:59:58;30.50;38.80
79760;DHT22;70512;42.122;24.732;2023-06-10T09:02:27;30.90;38.30
79760;DHT22;70512;42.122;24.732;2023-06-10T09:04:56;31.40;36.70
79760;DHT22;70512;42.122;24.732;2023-06-10T09:07:24;31.60;36.40
79760;DHT22;70512;42.122;24.732;2023-06-10T09:09:53;31.70;35.80
79760;DHT22;70512;42.122;24.732;2023-06-10T09:12:21;32.20;35.10
79760;DHT22;70512;42.122;24.732;2023-06-10T09:14:49;32.00;33.20
79760;DHT22;70512;42.122;24.732;2023-06-10T09:17:17;31.80;33.70
79760;DHT22;70512;42.122;24.732;2023-06-10T09:19:45;31.90;33.80
79760;DHT22;70512;42.122;24.732;2023-06-10T09:22:13;32.20;32.00
79760;DHT22;70512;42.122;24.732;2023-06-10T09:24:41;32.40;32.40
79760;DHT22;70512;42.122;24.732;2023-06-10T09:27:09;32.70;30.00
79760;DHT22;70512;42.122;24.732;2023-06-10T09:29:47;32.70;29.20
79760;DHT22;70512;42.122;24.732;2023-06-10T09:32:16;32.00;30.10
79760;DHT22;70512;42.122;24.732;2023-06-10T09:34:45;32.20;29.10
79760;DHT22;70512;42.122;24.732;2023-06-10T09:37:14;32.40;28.60
79760;DHT22;70512;42.122;24.732;2023-06-10T09:39:42;32.40;28.70
79760;DHT22;70512;42.122;24.732;2023-06-10T09:42:17;32.40;28.70
79760;DHT22;70512;42.122;24.732;2023-06-10T09:44:52;32.40;29.20
79760;DHT22;70512;42.122;24.732;2023-06-10T09:47:21;32.30;30.00
79760;DHT22;70512;42.122;24.732;2023-06-10T09:49:49;32.30;30.30
79760;DHT22;70512;42.122;24.732;2023-06-10T09:52:27;32.00;31.50
79760;DHT22;70512;42.122;24.732;2023-06-10T09:55:02;31.90;36.20
79760;DHT22;70512;42.122;24.732;2023-06-10T09:57:31;31.30;37.20
79760;DHT22;70512;42.122;24.732;2023-06-10T10:00:08;31.30;38.20
79760;DHT22;70512;42.122;24.732;2023-06-10T10:02:49;31.30;37.60
79760;DHT22;70512;42.122;24.732;2023-06-10T10:05:16;31.60;37.00
79760;DHT22;70512;42.122;24.732;2023-06-10T10:07:45;31.10;36.80
79760;DHT22;70512;42.122;24.732;2023-06-10T10:10:14;31.00;37.20
79760;DHT22;70512;42.122;24.732;2023-06-10T10:12:43;31.20;37.60
79760;DHT22;70512;42.122;24.732;2023-06-10T10:15:12;31.10;36.40
79760;DHT22;70512;42.122;24.732;2023-06-10T10:18:04;31.20;36.80
79760;DHT22;70512;42.122;24.732;2023-06-10T10:20:29;31.60;35.80
79760;DHT22;70512;42.122;24.732;2023-06-10T10:22:56;31.80;35.40
79760;DHT22;70512;42.122;24.732;2023-06-10T10:25:27;32.20;34.90
79760;DHT22;70512;42.122;24.732;2023-06-10T10:28:02;32.10;34.60
79760;DHT22;70512;42.122;24.732;2023-06-10T10:30:30;32.40;34.70
79760;DHT22;70512;42.122;24.732;2023-06-10T10:33:00;32.70;34.40
79760;DHT22;70512;42.122;24.732;2023-06-10T10:35:28;32.90;33.80
79760;DHT22;70512;42.122;24.732;2023-06-10T10:37:57;33.20;33.50
79760;DHT22;70512;42.122;24.732;2023-06-10T10:40:26;33.00;33.10
79760;DHT22;70512;42.122;24.732;2023-06-10T10:42:57;33.40;33.00
79760;DHT22;70512;42.122;24.732;2023-06-10T10:45:27;33.20;33.10
79760;DHT22;70512;42.122;24.732;2023-06-10T10:47:56;33.80;32.00
79760;DHT22;70512;42.122;24.732;2023-06-10T10:50:25;33.40;31.90
79760;DHT22;70512;42.122;24.732;2023-06-10T10:53:02;33.10;32.40
79760;DHT22;70512;42.122;24.732;2023-06-10T10:55:30;33.00;32.30
79760;DHT22;70512;42.122;24.732;2023-06-10T10:57:59;32.90;32.60
79760;DHT22;70512;42.122;24.732;2023-06-10T11:00:33;32.70;32.90
79760;DHT22;70512;42.122;24.732;2023-06-10T11:03:06;32.50;33.00
79760;DHT22;70512;42.122;24.732;2023-06-10T11:05:43;32.70;33.30
79760;DHT22;70512;42.122;24.732;2023-06-10T11:08:12;32.80;33.20
79760;DHT22;70512;42.122;24.732;2023-06-10T11:10:41;32.80;32.30
79760;DHT22;70512;42.122;24.732;2023-06-10T11:13:15;32.80;32.10
79760;DHT22;70512;42.122;24.732;2023-06-10T11:15:47;32.60;32.80
79760;DHT22;70512;42.122;24.732;2023-06-10T11:18:23;32.00;33.50
79760;DHT22;70512;42.122;24.732;2023-06-10T11:21:04;32.20;33.90
79760;DHT22;70512;42.122;24.732;2023-06-10T11:23:34;32.50;33.50
79760;DHT22;70512;42.122;24.732;2023-06-10T11:26:20;32.30;33.60
79760;DHT22;70512;42.122;24.732;2023-06-10T11:31:26;32.00;33.50
79760;DHT22;70512;42.122;24.732;2023-06-10T11:34:02;32.20;33.30
79760;DHT22;70512;42.122;24.732;2023-06-10T11:36:34;32.80;32.90
79760;DHT22;70512;42.122;24.732;2023-06-10T11:39:04;34.50;30.60
79760;DHT22;70512;42.122;24.732;2023-06-10T11:41:33;35.20;28.80
79760;DHT22;70512;42.122;24.732;2023-06-10T11:44:04;35.40;28.10
79760;DHT22;70512;42.122;24.732;2023-06-10T11:46:31;37.40;27.00
79760;DHT22;70512;42.122;24.732;2023-06-10T11:49:00;38.20;25.60
79760;DHT22;70512;42.122;24.732;2023-06-10T11:51:40;39.70;24.50
79760;DHT22;70512;42.122;24.732;2023-06-10T11:54:10;40.30;24.50
79760;DHT22;70512;42.122;24.732;2023-06-10T11:56:38;40.70;23.20
79760;DHT22;70512;42.122;24.732;2023-06-10T11:59:07;40.10;23.10
79760;DHT22;70512;42.122;24.732;2023-06-10T12:01:36;41.70;22.40
79760;DHT22;70512;42.122;24.732;2023-06-10T12:04:08;42.30;22.10
79760;DHT22;70512;42.122;24.732;2023-06-10T12:06:48;44.00;20.80
79760;DHT22;70512;42.122;24.732;2023-06-10T12:09:27;43.10;20.90
79760;DHT22;70512;42.122;24.732;2023-06-10T12:12:02;42.40;21.40
79760;DHT22;70512;42.122;24.732;2023-06-10T12:14:56;41.80;21.90
79760;DHT22;70512;42.122;24.732;2023-06-10T12:19:54;44.80;19.50
79760;DHT22;70512;42.122;24.732;2023-06-10T12:22:22;46.40;18.60
79760;DHT22;70512;42.122;24.732;2023-06-10T12:24:59;47.00;18.30
79760;DHT22;70512;42.122;24.732;2023-06-10T12:27:27;46.30;18.50
79760;DHT22;70512;42.122;24.732;2023-06-10T12:29:57;44.90;19.50
79760;DHT22;70512;42.122;24.732;2023-06-10T12:32:43;43.90;20.30
79760;DHT22;70512;42.122;24.732;2023-06-10T12:35:13;43.60;20.40
79760;DHT22;70512;42.122;24.732;2023-06-10T12:37:42;42.20;21.10
79760;DHT22;70512;42.122;24.732;2023-06-10T12:40:12;40.70;22.60
79760;DHT22;70512;42.122;24.732;2023-06-10T12:42:40;39.30;23.70
79760;DHT22;70512;42.122;24.732;2023-06-10T12:45:08;38.40;24.70
79760;DHT22;70512;42.122;24.732;2023-06-10T12:47:40;38.80;24.50
79760;DHT22;70512;42.122;24.732;2023-06-10T12:50:08;39.90;23.80
79760;DHT22;70512;42.122;24.732;2023-06-10T12:52:36;41.20;22.70
79760;DHT22;70512;42.122;24.732;2023-06-10T12:55:04;43.10;21.50
79760;DHT22;70512;42.122;24.732;2023-06-10T12:57:32;44.50;20.20
79760;DHT22;70512;42.122;24.732;2023-06-10T13:00:00;45.20;19.10
79760;DHT22;70512;42.122;24.732;2023-06-10T13:02:29;46.40;18.60
79760;DHT22;70512;42.122;24.732;2023-06-10T13:04:58;47.30;17.90
79760;DHT22;70512;42.122;24.732;2023-06-10T13:07:25;48.00;17.30
79760;DHT22;70512;42.122;24.732;2023-06-10T13:09:53;48.50;16.50
79760;DHT22;70512;42.122;24.732;2023-06-10T13:12:21;48.30;16.50
79760;DHT22;70512;42.122;24.732;2023-06-10T13:14:49;48.00;16.80
79760;DHT22;70512;42.122;24.732;2023-06-10T13:17:17;47.90;16.70
79760;DHT22;70512;42.122;24.732;2023-06-10T13:19:44;48.10;17.00
79760;DHT22;70512;42.122;24.732;2023-06-10T13:22:12;45.50;18.40
79760;DHT22;70512;42.122;24.732;2023-06-10T13:24:40;45.60;18.40
79760;DHT22;70512;42.122;24.732;2023-06-10T13:27:09;45.80;18.20
79760;DHT22;70512;42.122;24.732;2023-06-10T13:29:39;45.10;18.20
79760;DHT22;70512;42.122;24.732;2023-06-10T13:32:08;44.00;18.30
79760;DHT22;70512;42.122;24.732;2023-06-10T13:34:37;42.90;19.60
79760;DHT22;70512;42.122;24.732;2023-06-10T13:37:05;42.50;20.10
79760;DHT22;70512;42.122;24.732;2023-06-10T13:39:33;42.00;20.10
79760;DHT22;70512;42.122;24.732;2023-06-10T13:42:00;41.80;20.20
79760;DHT22;70512;42.122;24.732;2023-06-10T13:44:28;41.50;20.20
79760;DHT22;70512;42.122;24.732;2023-06-10T13:46:57;41.50;20.40
79760;DHT22;70512;42.122;24.732;2023-06-10T13:49:25;40.40;21.30
79760;DHT22;70512;42.122;24.732;2023-06-10T13:51:53;40.10;22.20
79760;DHT22;70512;42.122;24.732;2023-06-10T13:54:21;41.30;21.10
79760;DHT22;70512;42.122;24.732;2023-06-10T13:56:49;41.80;20.50
79760;DHT22;70512;42.122;24.732;2023-06-10T13:59:16;41.30;20.80
79760;DHT22;70512;42.122;24.732;2023-06-10T14:01:46;40.90;20.90
79760;DHT22;70512;42.122;24.732;2023-06-10T14:04:13;39.40;22.20
79760;DHT22;70512;42.122;24.732;2023-06-10T14:06:41;39.30;22.80
79760;DHT22;70512;42.122;24.732;2023-06-10T14:09:09;39.30;22.80
79760;DHT22;70512;42.122;24.732;2023-06-10T14:11:37;39.50;22.70
79760;DHT22;70512;42.122;24.732;2023-06-10T14:14:04;39.90;22.30
79760;DHT22;70512;42.122;24.732;2023-06-10T14:16:32;40.90;21.70
79760;DHT22;70512;42.122;24.732;2023-06-10T14:19:00;41.50;20.60
79760;DHT22;70512;42.122;24.732;2023-06-10T14:21:27;41.50;20.50
79760;DHT22;70512;42.122;24.732;2023-06-10T14:23:55;40.80;21.10
79760;DHT22;70512;42.122;24.732;2023-06-10T14:26:23;40.00;21.40
79760;DHT22;70512;42.122;24.732;2023-06-10T14:28:52;39.50;22.30
79760;DHT22;70512;42.122;24.732;2023-06-10T14:31:20;39.70;22.60
79760;DHT22;70512;42.122;24.732;2023-06-10T14:33:48;40.70;21.70
79760;DHT22;70512;42.122;24.732;2023-06-10T14:36:15;41.90;20.70
79760;DHT22;70512;42.122;24.732;2023-06-10T14:38:44;42.80;19.60
79760;DHT22;70512;42.122;24.732;2023-06-10T14:41:13;43.30;19.30
79760;DHT22;70512;42.122;24.732;2023-06-10T14:43:40;43.50;19.10
79760;DHT22;70512;42.122;24.732;2023-06-10T14:46:08;42.90;19.20
79760;DHT22;70512;42.122;24.732;2023-06-10T14:48:36;42.10;19.90
79760;DHT22;70512;42.122;24.732;2023-06-10T14:51:04;41.20;20.80
79760;DHT22;70512;42.122;24.732;2023-06-10T14:53:31;40.10;21.60
79760;DHT22;70512;42.122;24.732;2023-06-10T14:55:59;40.40;21.60
79760;DHT22;70512;42.122;24.732;2023-06-10T14:58:27;41.00;20.40
79760;DHT22;70512;42.122;24.732;2023-06-10T15:00:54;41.90;20.00
79760;DHT22;70512;42.122;24.732;2023-06-10T15:03:22;42.20;19.00
79760;DHT22;70512;42.122;24.732;2023-06-10T15:05:50;42.70;18.30
79760;DHT22;70512;42.122;24.732;2023-06-10T15:08:17;43.00;18.10
79760;DHT22;70512;42.122;24.732;2023-06-10T15:10:45;43.80;17.90
79760;DHT22;70512;42.122;24.732;2023-06-10T15:13:14;44.70;17.40
79760;DHT22;70512;42.122;24.732;2023-06-10T15:15:42;45.00;16.80
79760;DHT22;70512;42.122;24.732;2023-06-10T15:18:10;44.30;17.10
79760;DHT22;70512;42.122;24.732;2023-06-10T15:20:38;43.90;17.00
79760;DHT22;70512;42.122;24.732;2023-06-10T15:23:05;43.60;17.20
79760;DHT22;70512;42.122;24.732;2023-06-10T15:25:34;43.30;16.90
79760;DHT22;70512;42.122;24.732;2023-06-10T15:28:02;43.10;17.50
79760;DHT22;70512;42.122;24.732;2023-06-10T15:30:31;42.20;18.10
79760;DHT22;70512;42.122;24.732;2023-06-10T15:32:59;41.10;19.10
79760;DHT22;70512;42.122;24.732;2023-06-10T15:35:26;40.20;19.90